sensor_id;sensor_type;location;lat;lon;timestamp;pressure;altitude;pressure_sealevel;temperature;humidity
23589;BME280;11972;48.078;11.876;2023-02-03T00:02:05;96441.13;;;3.18;100.00
23589;BME280;11972;48.078;11.876;2023-02-03T00:06:06;96443.00;;;3.16;100.00
23589;BME280;11972;48.078;11.876;2023-02-03T00:10:07;96435.31;;;3.14;100.00
23589;BME280;11972;48.078;11.876;2023-02-03T00:14:07;96435.19;;;3.16;100.00
23589;BME280;11972;48.078;11.876;2023-02-03T00:18:07;96426.75;;;3.12;100.00
23589;BME280;11972;48.078;11.876;2023-02-03T00:22:08;96429.47;;;3.11;100.00
23589;BME280;11972;48.078;11.876;2023-02-03T00:26:13;96427.59;;;3.13;100.00
23589;BME280;11972;48.078;11.876;2023-02-03T00:30:14;96425.00;;;3.13;100.00
23589;BME280;11972;48.078;11.876;2023-02-03T00:34:14;96425.69;;;3.15;100.00
23589;BME280;11972;48.078;11.876;2023-02-03T00:38:15;96415.25;;;3.15;100.00
23589;BME280;11972;48.078;11.876;2023-02-03T00:42:15;96408.16;;;3.17;100.00
23589;BME280;11972;48.078;11.876;2023-02-03T00:46:15;96409.06;;;3.16;100.00
23589;BME280;11972;48.078;11.876;2023-02-03T00:50:16;96426.53;;;3.15;100.00
23589;BME280;11972;48.078;11.876;2023-02-03T00:54:16;96421.91;;;3.19;100.00
23589;BME280;11972;48.078;11.876;2023-02-03T00:58:17;96430.47;;;3.21;100.00
23589;BME280;11972;48.078;11.876;2023-02-03T01:02:17;96439.22;;;3.20;100.00
23589;BME280;11972;48.078;11.876;2023-02-03T01:06:19;96427.97;;;3.19;100.00
23589;BME280;11972;48.078;11.876;2023-02-03T01:10:19;96430.69;;;3.18;100.00
23589;BME280;11972;48.078;11.876;2023-02-03T01:14:20;96432.56;;;3.16;100.00
23589;BME280;11972;48.078;11.876;2023-02-03T01:18:20;96426.53;;;3.15;100.00
23589;BME280;11972;48.078;11.876;2023-02-03T01:22:20;96429.97;;;3.16;100.00
23589;BME280;11972;48.078;11.876;2023-02-03T01:26:22;96435.19;;;3.16;100.00
23589;BME280;11972;48.078;11.876;2023-02-03T01:30:22;96422.97;;;3.16;100.00
23589;BME280;11972;48.078;11.876;2023-02-03T01:34:23;96418.59;;;3.17;100.00
23589;BME280;11972;48.078;11.876;2023-02-03T01:38:23;96425.34;;;3.19;100.00
23589;BME280;11972;48.078;11.876;2023-02-03T01:42:24;96413.84;;;3.22;100.00
23589;BME280;11972;48.078;11.876;2023-02-03T01:46:29;96415.28;;;3.26;100.00
23589;BME280;11972;48.078;11.876;2023-02-03T01:50:33;96409.13;;;3.27;100.00
23589;BME280;11972;48.078;11.876;2023-02-03T01:54:39;96414.34;;;3.27;100.00
23589;BME280;11972;48.078;11.876;2023-02-03T01:58:42;96401.28;;;3.27;100.00
23589;BME280;11972;48.078;11.876;2023-02-03T02:02:46;96397.50;;;3.31;100.00
23589;BME280;11972;48.078;11.876;2023-02-03T02:06:47;96404.75;;;3.39;100.00
23589;BME280;11972;48.078;11.876;2023-02-03T02:10:50;96403.69;;;3.53;100.00
23589;BME280;11972;48.078;11.876;2023-02-03T02:14:51;96396.47;;;3.67;100.00
23589;BME280;11972;48.078;11.876;2023-02-03T02:19:39;96390.53;;;3.77;100.00
23589;BME280;11972;48.078;11.876;2023-02-03T02:27:56;96404.88;;;3.82;100.00
23589;BME280;11972;48.078;11.876;2023-02-03T02:41:18;96425.09;;;3.91;100.00
23589;BME280;11972;48.078;11.876;2023-02-03T02:45:38;96413.69;;;3.92;100.00
23589;BME280;11972;48.078;11.876;2023-02-03T02:50:17;96410.84;;;3.95;100.00
23589;BME280;11972;48.078;11.876;2023-02-03T02:54:23;96415.22;;;3.95;100.00
23589;BME280;11972;48.078;11.876;2023-02-03T02:58:25;96402.03;;;3.96;100.00
23589;BME280;11972;48.078;11.876;2023-02-03T03:02:35;96400.94;;;3.99;100.00
23589;BME280;11972;48.078;11.876;2023-02-03T03:06:45;96397.50;;;3.98;100.00
23589;BME280;11972;48.078;11.876;2023-02-03T03:10:47;96382.09;;;3.95;100.00
23589;BME280;11972;48.078;11.876;2023-02-03T03:14:51;96394.66;;;4.02;100.00
23589;BME280;11972;48.078;11.876;2023-02-03T03:19:16;96408.91;;;4.09;100.00
23589;BME280;11972;48.078;11.876;2023-02-03T03:23:37;96398.22;;;4.01;100.00
23589;BME280;11972;48.078;11.876;2023-02-03T03:27:41;96400.13;;;3.98;100.00
23589;BME280;11972;48.078;11.876;2023-02-03T03:31:44;96406.19;;;3.99;100.00
23589;BME280;11972;48.078;11.876;2023-02-03T03:35:49;96407.28;;;3.96;100.00
23589;BME280;11972;48.078;11.876;2023-02-03T03:40:16;96394.06;;;3.98;100.00
23589;BME280;11972;48.078;11.876;2023-02-03T03:44:19;96361.63;;;4.01;100.00
23589;BME280;11972;48.078;11.876;2023-02-03T03:48:26;96365.66;;;4.05;100.00
23589;BME280;11972;48.078;11.876;2023-02-03T03:52:31;96347.13;;;4.08;100.00
23589;BME280;11972;48.078;11.876;2023-02-03T03:56:39;96342.13;;;4.05;100.00
23589;BME280;11972;48.078;11.876;2023-02-03T04:00:42;96347.38;;;4.05;100.00
23589;BME280;11972;48.078;11.876;2023-02-03T04:04:44;96361.13;;;4.07;100.00
23589;BME280;11972;48.078;11.876;2023-02-03T04:08:45;96351.41;;;4.09;100.00
23589;BME280;11972;48.078;11.876;2023-02-03T04:12:45;96351.16;;;4.12;100.00
23589;BME280;11972;48.078;11.876;2023-02-03T04:16:46;96365.06;;;4.12;100.00
23589;BME280;11972;48.078;11.876;2023-02-03T04:20:46;96379.94;;;4.12;100.00
23589;BME280;11972;48.078;11.876;2023-02-03T04:24:46;96386.81;;;4.13;100.00
23589;BME280;11972;48.078;11.876;2023-02-03T04:28:46;96380.63;;;4.14;100.00
23589;BME280;11972;48.078;11.876;2023-02-03T04:32:47;96393.69;;;4.14;100.00
23589;BME280;11972;48.078;11.876;2023-02-03T04:36:47;96377.03;;;4.15;100.00
23589;BME280;11972;48.078;11.876;2023-02-03T04:40:48;96384.88;;;4.15;100.00
23589;BME280;11972;48.078;11.876;2023-02-03T04:44:49;96369.19;;;4.15;100.00
23589;BME280;11972;48.078;11.876;2023-02-03T04:48:49;96369.19;;;4.15;100.00
23589;BME280;11972;48.078;11.876;2023-02-03T04:52:50;96392.50;;;4.18;100.00
23589;BME280;11972;48.078;11.876;2023-02-03T04:56:50;96412.47;;;4.19;100.00
23589;BME280;11972;48.078;11.876;2023-02-03T05:00:50;96393.22;;;4.20;100.00
23589;BME280;11972;48.078;11.876;2023-02-03T05:04:51;96391.53;;;4.19;100.00
23589;BME280;11972;48.078;11.876;2023-02-03T05:08:52;96405.34;;;4.21;100.00
23589;BME280;11972;48.078;11.876;2023-02-03T05:12:52;96406.31;;;4.20;100.00
23589;BME280;11972;48.078;11.876;2023-02-03T05:16:52;96392.13;;;4.22;100.00
23589;BME280;11972;48.078;11.876;2023-02-03T05:20:53;96384.66;;;4.18;100.00
23589;BME280;11972;48.078;11.876;2023-02-03T05:24:53;96385.72;;;4.15;100.00
23589;BME280;11972;48.078;11.876;2023-02-03T05:28:53;96399.75;;;4.14;100.00
23589;BME280;11972;48.078;11.876;2023-02-03T05:32:54;96394.41;;;4.16;100.00
23589;BME280;11972;48.078;11.876;2023-02-03T05:36:54;96381.91;;;4.19;100.00
23589;BME280;11972;48.078;11.876;2023-02-03T05:40:54;96365.97;;;4.22;100.00
23589;BME280;11972;48.078;11.876;2023-02-03T05:45:13;96368.72;;;4.21;100.00
23589;BME280;11972;48.078;11.876;2023-02-03T05:49:14;96351.38;;;4.20;100.00
23589;BME280;11972;48.078;11.876;2023-02-03T05:53:14;96337.59;;;4.18;100.00
23589;BME280;11972;48.078;11.876;2023-02-03T05:57:15;96338.41;;;4.18;100.00
23589;BME280;11972;48.078;11.876;2023-02-03T06:01:18;96355.75;;;4.19;100.00
23589;BME280;11972;48.078;11.876;2023-02-03T06:05:19;96366.81;;;4.23;100.00
23589;BME280;11972;48.078;11.876;2023-02-03T06:09:19;96372.88;;;4.23;100.00
23589;BME280;11972;48.078;11.876;2023-02-03T06:13:19;96387.72;;;4.23;100.00
23589;BME280;11972;48.078;11.876;2023-02-03T06:17:20;96370.38;;;4.22;100.00
23589;BME280;11972;48.078;11.876;2023-02-03T06:21:20;96372.31;;;4.20;100.00
23589;BME280;11972;48.078;11.876;2023-02-03T06:25:21;96367.06;;;4.20;100.00
23589;BME280;11972;48.078;11.876;2023-02-03T06:29:23;96377.53;;;4.20;100.00
23589;BME280;11972;48.078;11.876;2023-02-03T06:33:24;96376.56;;;4.21;100.00
23589;BME280;11972;48.078;11.876;2023-02-03T06:37:24;96395.56;;;4.23;100.00
23589;BME280;11972;48.078;11.876;2023-02-03T06:41:24;96358.03;;;4.24;100.00
23589;BME280;11972;48.078;11.876;2023-02-03T06:45:29;96368.22;;;4.27;100.00
23589;BME280;11972;48.078;11.876;2023-02-03T06:49:29;96371.56;;;4.29;100.00
23589;BME280;11972;48.078;11.876;2023-02-03T06:53:30;96384.50;;;4.31;100.00
23589;BME280;11972;48.078;11.876;2023-02-03T06:57:31;96402.72;;;4.32;100.00
23589;BME280;11972;48.078;11.876;2023-02-03T07:01:31;96394.59;;;4.35;100.00
23589;BME280;11972;48.078;11.876;2023-02-03T07:05:31;96415.53;;;4.35;100.00
23589;BME280;11972;48.078;11.876;2023-02-03T07:09:32;96397.22;;;4.35;100.00
23589;BME280;11972;48.078;11.876;2023-02-03T07:13:32;96405.78;;;4.37;100.00
23589;BME280;11972;48.078;11.876;2023-02-03T07:17:32;96386.28;;;4.41;100.00
23589;BME280;11972;48.078;11.876;2023-02-03T07:21:32;96373.88;;;4.43;100.00
23589;BME280;11972;48.078;11.876;2023-02-03T07:25:33;96354.38;;;4.47;100.00
23589;BME280;11972;48.078;11.876;2023-02-03T07:29:33;96360.78;;;4.55;100.00
23589;BME280;11972;48.078;11.876;2023-02-03T07:33:34;96341.25;;;4.59;100.00
23589;BME280;11972;48.078;11.876;2023-02-03T07:37:34;96341.72;;;4.64;100.00
23589;BME280;11972;48.078;11.876;2023-02-03T07:41:35;96357.41;;;4.64;100.00
23589;BME280;11972;48.078;11.876;2023-02-03T07:45:35;96337.56;;;4.61;100.00
23589;BME280;11972;48.078;11.876;2023-02-03T07:49:35;96347.38;;;4.69;100.00
23589;BME280;11972;48.078;11.876;2023-02-03T07:53:36;96345.81;;;4.78;100.00
23589;BME280;11972;48.078;11.876;2023-02-03T07:57:36;96371.47;;;4.84;100.00
23589;BME280;11972;48.078;11.876;2023-02-03T08:01:37;96330.75;;;4.91;100.00
23589;BME280;11972;48.078;11.876;2023-02-03T08:05:37;96329.16;;;5.00;100.00
23589;BME280;11972;48.078;11.876;2023-02-03T08:09:37;96303.84;;;5.10;100.00
23589;BME280;11972;48.078;11.876;2023-02-03T08:13:37;96310.25;;;5.17;100.00
23589;BME280;11972;48.078;11.876;2023-02-03T08:17:39;96327.34;;;5.21;100.00
23589;BME280;11972;48.078;11.876;2023-02-03T08:21:41;96326.84;;;5.27;100.00
23589;BME280;11972;48.078;11.876;2023-02-03T08:25:41;96332.38;;;5.34;100.00
23589;BME280;11972;48.078;11.876;2023-02-03T08:29:42;96347.28;;;5.33;100.00
23589;BME280;11972;48.078;11.876;2023-02-03T08:33:42;96368.22;;;5.33;100.00
23589;BME280;11972;48.078;11.876;2023-02-03T08:37:43;96356.53;;;5.37;100.00
23589;BME280;11972;48.078;11.876;2023-02-03T08:41:43;96390.09;;;5.43;100.00
23589;BME280;11972;48.078;11.876;2023-02-03T08:45:44;96392.31;;;5.48;100.00
23589;BME280;11972;48.078;11.876;2023-02-03T08:49:44;96365.59;;;5.54;100.00
23589;BME280;11972;48.078;11.876;2023-02-03T08:53:44;96358.03;;;5.61;100.00
23589;BME280;11972;48.078;11.876;2023-02-03T08:57:45;96355.44;;;5.70;100.00
23589;BME280;11972;48.078;11.876;2023-02-03T09:01:45;96403.22;;;5.74;100.00
23589;BME280;11972;48.078;11.876;2023-02-03T09:05:47;96349.69;;;5.77;100.00
23589;BME280;11972;48.078;11.876;2023-02-03T09:09:47;96330.13;;;5.81;100.00
23589;BME280;11972;48.078;11.876;2023-02-03T09:13:48;96326.38;;;5.83;100.00
23589;BME280;11972;48.078;11.876;2023-02-03T09:17:49;96307.63;;;5.88;100.00
23589;BME280;11972;48.078;11.876;2023-02-03T09:21:49;96319.41;;;5.93;100.00
23589;BME280;11972;48.078;11.876;2023-02-03T09:25:50;96356.56;;;5.99;100.00
23589;BME280;11972;48.078;11.876;2023-02-03T09:29:50;96341.78;;;5.97;100.00
23589;BME280;11972;48.078;11.876;2023-02-03T09:33:51;96348.94;;;5.95;100.00
23589;BME280;11972;48.078;11.876;2023-02-03T09:37:51;96331.31;;;5.97;100.00
23589;BME280;11972;48.078;11.876;2023-02-03T09:46:27;96333.53;;;6.12;100.00
23589;BME280;11972;48.078;11.876;2023-02-03T09:50:32;96353.84;;;6.19;100.00
23589;BME280;11972;48.078;11.876;2023-02-03T09:54:42;96321.28;;;6.32;100.00
23589;BME280;11972;48.078;11.876;2023-02-03T09:58:43;96317.31;;;6.47;100.00
23589;BME280;11972;48.078;11.876;2023-02-03T10:03:12;96323.63;;;6.54;100.00
23589;BME280;11972;48.078;11.876;2023-02-03T10:07:27;96311.38;;;6.55;100.00
23589;BME280;11972;48.078;11.876;2023-02-03T10:20:02;96337.03;;;6.61;100.00
23589;BME280;11972;48.078;11.876;2023-02-03T10:24:09;96337.19;;;6.59;100.00
23589;BME280;11972;48.078;11.876;2023-02-03T10:28:17;96353.78;;;6.60;100.00
23589;BME280;11972;48.078;11.876;2023-02-03T10:32:19;96306.25;;;6.63;100.00
23589;BME280;11972;48.078;11.876;2023-02-03T10:36:21;96291.88;;;6.67;100.00
23589;BME280;11972;48.078;11.876;2023-02-03T10:40:23;96302.38;;;6.67;100.00
23589;BME280;11972;48.078;11.876;2023-02-03T10:44:30;96305.16;;;6.75;100.00
23589;BME280;11972;48.078;11.876;2023-02-03T10:48:34;96294.09;;;6.71;100.00
23589;BME280;11972;48.078;11.876;2023-02-03T10:52:35;96308.16;;;6.70;100.00
23589;BME280;11972;48.078;11.876;2023-02-03T10:56:36;96297.38;;;6.74;100.00
23589;BME280;11972;48.078;11.876;2023-02-03T11:00:38;96283.16;;;6.76;100.00
23589;BME280;11972;48.078;11.876;2023-02-03T11:04:38;96312.44;;;6.91;100.00
23589;BME280;11972;48.078;11.876;2023-02-03T11:08:42;96288.50;;;6.94;100.00
23589;BME280;11972;48.078;11.876;2023-02-03T11:12:43;96302.34;;;6.96;100.00
23589;BME280;11972;48.078;11.876;2023-02-03T11:16:43;96284.91;;;7.05;100.00
23589;BME280;11972;48.078;11.876;2023-02-03T11:20:46;96287.78;;;7.11;100.00
23589;BME280;11972;48.078;11.876;2023-02-03T11:24:46;96267.03;;;7.18;100.00
23589;BME280;11972;48.078;11.876;2023-02-03T11:28:50;96251.94;;;7.20;100.00
23589;BME280;11972;48.078;11.876;2023-02-03T11:32:52;96252.75;;;7.30;100.00
23589;BME280;11972;48.078;11.876;2023-02-03T11:36:52;96199.31;;;7.39;100.00
23589;BME280;11972;48.078;11.876;2023-02-03T11:40:58;96233.56;;;7.57;100.00
23589;BME280;11972;48.078;11.876;2023-02-03T11:45:35;96262.88;;;7.53;100.00
23589;BME280;11972;48.078;11.876;2023-02-03T11:49:47;96268.72;;;7.46;100.00
23589;BME280;11972;48.078;11.876;2023-02-03T11:54:01;96235.00;;;7.42;100.00
23589;BME280;11972;48.078;11.876;2023-02-03T12:11:35;96201.94;;;7.67;100.00
23589;BME280;11972;48.078;11.876;2023-02-03T12:20:04;96194.84;;;7.50;100.00
23589;BME280;11972;48.078;11.876;2023-02-03T12:28:38;96240.28;;;7.32;100.00
23589;BME280;11972;48.078;11.876;2023-02-03T12:32:50;96162.13;;;7.34;100.00
23589;BME280;11972;48.078;11.876;2023-02-03T12:37:00;96175.44;;;7.33;100.00
23589;BME280;11972;48.078;11.876;2023-02-03T12:41:03;96153.72;;;7.31;100.00
23589;BME280;11972;48.078;11.876;2023-02-03T12:45:11;96170.31;;;7.31;100.00
23589;BME280;11972;48.078;11.876;2023-02-03T12:53:24;96138.88;;;7.12;100.00
23589;BME280;11972;48.078;11.876;2023-02-03T12:57:39;96148.06;;;6.98;100.00
23589;BME280;11972;48.078;11.876;2023-02-03T13:02:10;96164.78;;;6.97;100.00
23589;BME280;11972;48.078;11.876;2023-02-03T13:10:37;96113.25;;;6.96;100.00
23589;BME280;11972;48.078;11.876;2023-02-03T13:14:44;96130.25;;;6.92;100.00
23589;BME280;11972;48.078;11.876;2023-02-03T13:18:51;96116.97;;;6.93;100.00
23589;BME280;11972;48.078;11.876;2023-02-03T13:22:53;96112.09;;;6.99;100.00
23589;BME280;11972;48.078;11.876;2023-02-03T13:35:59;96117.97;;;6.83;100.00
23589;BME280;11972;48.078;11.876;2023-02-03T13:40:34;96090.78;;;6.74;100.00
23589;BME280;11972;48.078;11.876;2023-02-03T13:44:39;96126.50;;;6.67;100.00
23589;BME280;11972;48.078;11.876;2023-02-03T13:48:43;96097.91;;;6.64;100.00
23589;BME280;11972;48.078;11.876;2023-02-03T13:57:02;96075.53;;;6.60;100.00
23589;BME280;11972;48.078;11.876;2023-02-03T14:05:46;96063.94;;;6.53;100.00
23589;BME280;11972;48.078;11.876;2023-02-03T14:10:19;96058.84;;;6.51;100.00
23589;BME280;11972;48.078;11.876;2023-02-03T14:18:32;96034.69;;;6.47;100.00
23589;BME280;11972;48.078;11.876;2023-02-03T14:22:33;96020.19;;;6.43;100.00
23589;BME280;11972;48.078;11.876;2023-02-03T14:26:39;96016.22;;;6.39;100.00
23589;BME280;11972;48.078;11.876;2023-02-03T14:31:00;96017.31;;;6.37;100.00
23589;BME280;11972;48.078;11.876;2023-02-03T14:35:14;96028.25;;;6.32;100.00
23589;BME280;11972;48.078;11.876;2023-02-03T14:43:21;96036.13;;;6.32;100.00
23589;BME280;11972;48.078;11.876;2023-02-03T14:56:25;95991.13;;;6.27;100.00
23589;BME280;11972;48.078;11.876;2023-02-03T15:00:33;95986.84;;;6.26;100.00
23589;BME280;11972;48.078;11.876;2023-02-03T15:04:33;96033.09;;;6.27;100.00
23589;BME280;11972;48.078;11.876;2023-02-03T15:12:36;95975.00;;;6.22;100.00
23589;BME280;11972;48.078;11.876;2023-02-03T15:16:37;95967.69;;;6.16;100.00
23589;BME280;11972;48.078;11.876;2023-02-03T15:20:39;95960.78;;;6.15;100.00
23589;BME280;11972;48.078;11.876;2023-02-03T15:24:40;95947.97;;;6.12;100.00
23589;BME280;11972;48.078;11.876;2023-02-03T15:28:41;95974.34;;;6.10;100.00
23589;BME280;11972;48.078;11.876;2023-02-03T15:32:51;96009.69;;;6.06;100.00
23589;BME280;11972;48.078;11.876;2023-02-03T15:36:58;96016.44;;;6.09;100.00
23589;BME280;11972;48.078;11.876;2023-02-03T15:41:02;95999.06;;;6.08;100.00
23589;BME280;11972;48.078;11.876;2023-02-03T15:45:07;96027.78;;;6.09;100.00
23589;BME280;11972;48.078;11.876;2023-02-03T15:49:15;95985.13;;;6.07;100.00
23589;BME280;11972;48.078;11.876;2023-02-03T15:53:26;95973.81;;;6.07;100.00
23589;BME280;11972;48.078;11.876;2023-02-03T15:57:31;95993.13;;;6.06;100.00
23589;BME280;11972;48.078;11.876;2023-02-03T16:01:33;95984.44;;;6.05;100.00
23589;BME280;11972;48.078;11.876;2023-02-03T16:05:35;96028.19;;;6.05;100.00
23589;BME280;11972;48.078;11.876;2023-02-03T16:09:40;96053.03;;;6.01;100.00
23589;BME280;11972;48.078;11.876;2023-02-03T16:13:42;96026.13;;;5.99;100.00
23589;BME280;11972;48.078;11.876;2023-02-03T16:17:42;96025.16;;;6.00;100.00
23589;BME280;11972;48.078;11.876;2023-02-03T16:26:17;96012.75;;;6.02;100.00
23589;BME280;11972;48.078;11.876;2023-02-03T16:30:22;96022.09;;;6.04;100.00
23589;BME280;11972;48.078;11.876;2023-02-03T16:34:42;96036.47;;;6.00;100.00
23589;BME280;11972;48.078;11.876;2023-02-03T16:39:04;96103.41;;;6.04;100.00
23589;BME280;11972;48.078;11.876;2023-02-03T16:43:25;96122.06;;;6.01;100.00
23589;BME280;11972;48.078;11.876;2023-02-03T16:47:45;96099.56;;;5.99;100.00
23589;BME280;11972;48.078;11.876;2023-02-03T16:52:04;96085.31;;;5.91;100.00
23589;BME280;11972;48.078;11.876;2023-02-03T16:56:05;96115.41;;;5.87;100.00
23589;BME280;11972;48.078;11.876;2023-02-03T17:00:06;96107.13;;;5.82;100.00
23589;BME280;11972;48.078;11.876;2023-02-03T17:04:08;96089.75;;;5.81;100.00
23589;BME280;11972;48.078;11.876;2023-02-03T17:08:11;96074.72;;;5.73;100.00
23589;BME280;11972;48.078;11.876;2023-02-03T17:12:11;96098.56;;;5.61;100.00
23589;BME280;11972;48.078;11.876;2023-02-03T17:16:17;96054.44;;;5.46;100.00
23589;BME280;11972;48.078;11.876;2023-02-03T17:20:18;96070.13;;;5.17;100.00
23589;BME280;11972;48.078;11.876;2023-02-03T17:24:18;96081.91;;;4.83;100.00
23589;BME280;11972;48.078;11.876;2023-02-03T17:28:19;96073.31;;;4.71;100.00
23589;BME280;11972;48.078;11.876;2023-02-03T17:32:19;96110.53;;;4.84;100.00
23589;BME280;11972;48.078;11.876;2023-02-03T17:36:20;96106.44;;;4.91;100.00
23589;BME280;11972;48.078;11.876;2023-02-03T17:40:21;96104.19;;;4.77;100.00
23589;BME280;11972;48.078;11.876;2023-02-03T17:44:21;96101.97;;;4.72;100.00
23589;BME280;11972;48.078;11.876;2023-02-03T17:48:22;96076.50;;;4.75;100.00
23589;BME280;11972;48.078;11.876;2023-02-03T17:52:22;96132.88;;;4.88;100.00
23589;BME280;11972;48.078;11.876;2023-02-03T17:56:23;96097.13;;;5.08;100.00
23589;BME280;11972;48.078;11.876;2023-02-03T18:00:25;96092.97;;;5.06;100.00
23589;BME280;11972;48.078;11.876;2023-02-03T18:04:25;96110.31;;;4.97;100.00
23589;BME280;11972;48.078;11.876;2023-02-03T18:08:25;96084.69;;;4.91;100.00
23589;BME280;11972;48.078;11.876;2023-02-03T18:12:26;96092.78;;;4.78;100.00
23589;BME280;11972;48.078;11.876;2023-02-03T18:16:28;96131.09;;;4.58;100.00
23589;BME280;11972;48.078;11.876;2023-02-03T18:20:32;96103.75;;;4.41;100.00
23589;BME280;11972;48.078;11.876;2023-02-03T18:24:32;96079.03;;;4.25;100.00
23589;BME280;11972;48.078;11.876;2023-02-03T18:28:33;96088.22;;;4.19;100.00
23589;BME280;11972;48.078;11.876;2023-02-03T18:32:33;96083.25;;;4.16;100.00
23589;BME280;11972;48.078;11.876;2023-02-03T18:36:34;96098.81;;;4.17;100.00
23589;BME280;11972;48.078;11.876;2023-02-03T18:40:37;96051.88;;;4.16;100.00
23589;BME280;11972;48.078;11.876;2023-02-03T18:44:38;96027.63;;;4.14;100.00
23589;BME280;11972;48.078;11.876;2023-02-03T18:48:40;95969.63;;;4.20;100.00
23589;BME280;11972;48.078;11.876;2023-02-03T18:52:40;96007.88;;;4.21;100.00
23589;BME280;11972;48.078;11.876;2023-02-03T18:56:41;96051.59;;;4.19;100.00
23589;BME280;11972;48.078;11.876;2023-02-03T19:00:41;96060.28;;;4.19;100.00
23589;BME280;11972;48.078;11.876;2023-02-03T19:04:41;96080.84;;;4.24;100.00
23589;BME280;11972;48.078;11.876;2023-02-03T19:08:42;96075.72;;;4.22;100.00
23589;BME280;11972;48.078;11.876;2023-02-03T19:12:42;96083.56;;;4.22;100.00
23589;BME280;11972;48.078;11.876;2023-02-03T19:16:43;96067.63;;;4.26;100.00
23589;BME280;11972;48.078;11.876;2023-02-03T19:20:43;96077.25;;;4.25;100.00
23589;BME280;11972;48.078;11.876;2023-02-03T19:24:44;96102.03;;;4.31;100.00
23589;BME280;11972;48.078;11.876;2023-02-03T19:28:44;96028.53;;;4.24;100.00
23589;BME280;11972;48.078;11.876;2023-02-03T19:32:45;96101.75;;;4.24;100.00
23589;BME280;11972;48.078;11.876;2023-02-03T19:36:45;96063.53;;;4.33;100.00
23589;BME280;11972;48.078;11.876;2023-02-03T19:40:46;96084.72;;;4.30;100.00
23589;BME280;11972;48.078;11.876;2023-02-03T19:44:46;96068.19;;;4.29;100.00
23589;BME280;11972;48.078;11.876;2023-02-03T19:48:47;96089.69;;;4.33;100.00
23589;BME280;11972;48.078;11.876;2023-02-03T19:52:47;96099.44;;;4.31;100.00
23589;BME280;11972;48.078;11.876;2023-02-03T19:56:48;96054.31;;;4.38;100.00
23589;BME280;11972;48.078;11.876;2023-02-03T20:00:48;96066.44;;;4.39;100.00
23589;BME280;11972;48.078;11.876;2023-02-03T20:04:49;96080.22;;;4.41;100.00
23589;BME280;11972;48.078;11.876;2023-02-03T20:08:49;96049.81;;;4.40;100.00
23589;BME280;11972;48.078;11.876;2023-02-03T20:12:49;96062.09;;;4.50;100.00
23589;BME280;11972;48.078;11.876;2023-02-03T20:16:50;96045.44;;;4.51;100.00
23589;BME280;11972;48.078;11.876;2023-02-03T20:20:54;96073.69;;;4.57;100.00
23589;BME280;11972;48.078;11.876;2023-02-03T20:24:55;96088.13;;;4.61;100.00
23589;BME280;11972;48.078;11.876;2023-02-03T20:28:55;96094.28;;;4.81;100.00
23589;BME280;11972;48.078;11.876;2023-02-03T20:32:56;96054.75;;;4.84;100.00
23589;BME280;11972;48.078;11.876;2023-02-03T20:36:56;96082.72;;;4.83;100.00
23589;BME280;11972;48.078;11.876;2023-02-03T20:40:57;96108.34;;;4.89;100.00
23589;BME280;11972;48.078;11.876;2023-02-03T20:44:58;96102.59;;;4.95;100.00
23589;BME280;11972;48.078;11.876;2023-02-03T20:48:58;96116.38;;;4.97;100.00
23589;BME280;11972;48.078;11.876;2023-02-03T20:52:59;96109.50;;;4.96;100.00
23589;BME280;11972;48.078;11.876;2023-02-03T20:56:59;96116.38;;;4.97;100.00
23589;BME280;11972;48.078;11.876;2023-02-03T21:00:59;96103.44;;;4.96;100.00
23589;BME280;11972;48.078;11.876;2023-02-03T21:05:23;96096.53;;;4.95;100.00
23589;BME280;11972;48.078;11.876;2023-02-03T21:09:24;96091.16;;;4.96;100.00
23589;BME280;11972;48.078;11.876;2023-02-03T21:13:28;96071.19;;;4.95;100.00
23589;BME280;11972;48.078;11.876;2023-02-03T21:17:34;96068.97;;;5.01;100.00
23589;BME280;11972;48.078;11.876;2023-02-03T21:21:37;96062.66;;;5.03;100.00
23589;BME280;11972;48.078;11.876;2023-02-03T21:25:39;96049.44;;;5.05;100.00
23589;BME280;11972;48.078;11.876;2023-02-03T21:29:39;96061.47;;;4.77;100.00
23589;BME280;11972;48.078;11.876;2023-02-03T21:33:40;96059.47;;;4.50;100.00
23589;BME280;11972;48.078;11.876;2023-02-03T21:37:41;96128.00;;;4.43;100.00
23589;BME280;11972;48.078;11.876;2023-02-03T21:41:42;96086.41;;;4.40;100.00
23589;BME280;11972;48.078;11.876;2023-02-03T21:45:43;96095.19;;;4.39;100.00
23589;BME280;11972;48.078;11.876;2023-02-03T21:49:43;96103.75;;;4.41;100.00
23589;BME280;11972;48.078;11.876;2023-02-03T21:53:50;96119.31;;;4.43;100.00
23589;BME280;11972;48.078;11.876;2023-02-03T21:57:53;96106.88;;;4.35;100.00
23589;BME280;11972;48.078;11.876;2023-02-03T22:01:53;96089.78;;;4.31;100.00
23589;BME280;11972;48.078;11.876;2023-02-03T22:10:08;96128.09;;;4.32;100.00
23589;BME280;11972;48.078;11.876;2023-02-03T22:14:09;96125.72;;;4.29;100.00
23589;BME280;11972;48.078;11.876;2023-02-03T22:18:09;96117.06;;;4.29;100.00
23589;BME280;11972;48.078;11.876;2023-02-03T22:22:10;96116.22;;;4.28;100.00
23589;BME280;11972;48.078;11.876;2023-02-03T22:26:11;96115.75;;;4.23;100.00
23589;BME280;11972;48.078;11.876;2023-02-03T22:30:15;96116.28;;;4.17;100.00
23589;BME280;11972;48.078;11.876;2023-02-03T22:34:15;96130.56;;;4.13;100.00
23589;BME280;11972;48.078;11.876;2023-02-03T22:38:16;96167.44;;;4.10;100.00
23589;BME280;11972;48.078;11.876;2023-02-03T22:42:16;96185.03;;;4.08;100.00
23589;BME280;11972;48.078;11.876;2023-02-03T22:46:17;96181.94;;;4.03;100.00
23589;BME280;11972;48.078;11.876;2023-02-03T22:50:17;96177.94;;;3.98;100.00
23589;BME280;11972;48.078;11.876;2023-02-03T22:54:18;96182.22;;;4.00;100.00
23589;BME280;11972;48.078;11.876;2023-02-03T22:58:18;96195.28;;;4.00;100.00